Time;durP1;ratioP1;P1;durP2;ratioP2;P2;SDS_P1;SDS_P2;PMS_P1;PMS_P2;Temp;Humidity;BMP_temperature;BMP_pressure;BME280_temperature;BME280_humidity;BME280_pressure;Samples;Min_cycle;Max_cycle;Signal;HPM_P1;HPM_P2
2023/08/12 00:00:40;;;;;;;;;;;21.00;99.90;;;;;;5028414;28;19929;-43
2023/08/12 00:03:08;;;;;;;;;;;21.00;99.90;;;;;;5010002;28;19993;-43
2023/08/12 00:05:35;;;;;;;;;;;21.00;99.90;;;;;;5028860;28;19971;-43
2023/08/12 00:08:02;;;;;;;;;;;21.00;99.90;;;;;;5033805;28;20517;-44
2023/08/12 00:10:29;;;;;;;;;;;20.90;99.90;;;;;;5033627;28;19933;-44
2023/08/12 00:12:55;;;;;;;;;;;20.90;99.90;;;;;;5034315;28;20391;-43
2023/08/12 00:15:22;;;;;;;;;;;20.80;99.90;;;;;;5032304;28;19929;-42
2023/08/12 00:17:50;;;;;;;;;;;20.80;99.90;;;;;;5034468;28;19933;-43
2023/08/12 00:20:17;;;;;;;;;;;20.80;99.90;;;;;;5034379;28;19932;-44
2023/08/12 00:22:44;;;;;;;;;;;20.70;99.90;;;;;;5033145;28;19933;-43
2023/08/12 00:25:10;;;;;;;;;;;20.70;99.90;;;;;;5033147;28;20379;-43
2023/08/12 00:27:37;;;;;;;;;;;20.70;99.90;;;;;;5032862;28;19975;-43
2023/08/12 00:30:05;;;;;;;;;;;20.70;99.90;;;;;;5033220;28;20467;-43
2023/08/12 00:32:31;;;;;;;;;;;20.70;99.90;;;;;;5017346;28;19944;-43
2023/08/12 00:34:59;;;;;;;;;;;20.60;99.90;;;;;;5017730;28;20289;-43
2023/08/12 00:37:26;;;;;;;;;;;20.60;99.90;;;;;;5032297;28;20403;-44
2023/08/12 00:39:53;;;;;;;;;;;20.60;99.90;;;;;;5014427;28;19929;-43
2023/08/12 00:42:19;;;;;;;;;;;20.50;99.90;;;;;;5018956;28;19928;-43
2023/08/12 00:44:46;;;;;;;;;;;20.50;99.90;;;;;;5032936;28;19932;-43
2023/08/12 00:47:13;;;;;;;;;;;20.50;99.90;;;;;;5032963;28;20344;-43
2023/08/12 00:49:39;;;;;;;;;;;20.50;99.90;;;;;;5033368;28;19925;-44
2023/08/12 00:52:07;;;;;;;;;;;20.40;99.90;;;;;;5033545;28;20371;-43
2023/08/12 00:54:34;;;;;;;;;;;20.40;99.90;;;;;;5027045;28;20340;-43
2023/08/12 00:57:01;;;;;;;;;;;20.40;99.90;;;;;;5031420;28;19925;-43
2023/08/12 00:59:27;;;;;;;;;;;20.40;99.90;;;;;;5033415;28;19936;-43
2023/08/12 01:01:54;;;;;;;;;;;20.30;99.90;;;;;;5032504;28;20381;-43
2023/08/12 01:04:21;;;;;;;;;;;20.30;99.90;;;;;;5020481;28;19925;-43
2023/08/12 01:06:47;;;;;;;;;;;20.30;99.90;;;;;;5030545;28;20381;-43
2023/08/12 01:09:15;;;;;;;;;;;20.30;99.90;;;;;;5032540;28;19925;-43
2023/08/12 01:11:43;;;;;;;;;;;20.20;99.90;;;;;;5032604;28;19929;-43
2023/08/12 01:14:13;;;;;;;;;;;20.20;99.90;;;;;;5017093;28;19932;-42
2023/08/12 01:16:41;;;;;;;;;;;20.20;99.90;;;;;;5032597;28;20339;-43
2023/08/12 01:19:07;;;;;;;;;;;20.10;99.90;;;;;;5033388;28;19926;-43
2023/08/12 01:21:34;;;;;;;;;;;20.10;99.90;;;;;;5032271;28;19953;-43
2023/08/12 01:24:02;;;;;;;;;;;20.10;99.90;;;;;;5031581;28;19926;-42
2023/08/12 01:26:29;;;;;;;;;;;20.10;99.90;;;;;;5032855;28;20396;-43
2023/08/12 01:28:55;;;;;;;;;;;20.10;99.90;;;;;;5021522;28;19933;-42
2023/08/12 01:31:25;;;;;;;;;;;20.10;99.90;;;;;;5027908;28;20260;-43
2023/08/12 01:33:52;;;;;;;;;;;20.00;99.90;;;;;;5033249;28;20367;-43
2023/08/12 01:36:20;;;;;;;;;;;20.00;99.90;;;;;;5031992;28;19924;-42
2023/08/12 01:38:47;;;;;;;;;;;20.00;99.90;;;;;;5032063;28;20456;-43
2023/08/12 01:41:15;;;;;;;;;;;19.90;99.90;;;;;;5032820;28;20293;-43
2023/08/12 01:43:42;;;;;;;;;;;19.90;99.90;;;;;;5032177;28;19929;-43
2023/08/12 01:46:09;;;;;;;;;;;19.90;99.90;;;;;;5031895;28;19925;-42
2023/08/12 01:48:35;;;;;;;;;;;19.90;99.90;;;;;;5031514;28;19932;-42
2023/08/12 01:51:02;;;;;;;;;;;19.90;99.90;;;;;;5032725;28;19971;-43
2023/08/12 01:53:29;;;;;;;;;;;19.90;99.90;;;;;;5028118;28;19929;-43
2023/08/12 01:55:56;;;;;;;;;;;19.90;99.90;;;;;;5023169;28;20403;-42
2023/08/12 01:58:26;;;;;;;;;;;19.90;99.90;;;;;;5020633;28;19936;-42
2023/08/12 02:00:52;;;;;;;;;;;19.90;99.90;;;;;;5028792;28;19925;-43
2023/08/12 02:03:19;;;;;;;;;;;19.80;99.90;;;;;;5031386;28;19929;-43
2023/08/12 02:05:46;;;;;;;;;;;19.90;99.90;;;;;;5032376;28;19932;-43
2023/08/12 02:08:12;;;;;;;;;;;19.80;99.90;;;;;;5030704;28;19940;-43
2023/08/12 02:10:39;;;;;;;;;;;19.90;99.90;;;;;;5031219;28;19929;-43
2023/08/12 02:13:06;;;;;;;;;;;19.90;99.90;;;;;;5027091;28;19980;-43
2023/08/12 02:15:34;;;;;;;;;;;19.90;99.90;;;;;;5031256;28;19925;-43
2023/08/12 02:18:01;;;;;;;;;;;19.90;99.90;;;;;;5032231;28;19925;-43
2023/08/12 02:20:28;;;;;;;;;;;19.90;99.90;;;;;;5032214;28;19925;-43
2023/08/12 02:22:55;;;;;;;;;;;19.90;99.90;;;;;;5032315;28;19979;-43
2023/08/12 02:25:21;;;;;;;;;;;19.90;99.90;;;;;;5032062;28;20285;-43
2023/08/12 02:27:48;;;;;;;;;;;19.90;99.90;;;;;;5029592;28;19929;-43
2023/08/12 02:30:14;;;;;;;;;;;19.90;99.90;;;;;;5018796;28;20355;-43
2023/08/12 02:32:43;;;;;;;;;;;19.90;99.90;;;;;;5031275;28;19929;-42
2023/08/12 02:35:10;;;;;;;;;;;19.90;99.90;;;;;;5030568;28;19971;-43
2023/08/12 02:37:36;;;;;;;;;;;19.90;99.90;;;;;;5030686;28;19933;-43
2023/08/12 02:40:04;;;;;;;;;;;19.90;99.90;;;;;;5031840;28;19980;-43
2023/08/12 02:42:31;;;;;;;;;;;19.90;99.90;;;;;;5031671;28;19933;-43
2023/08/12 02:44:59;;;;;;;;;;;19.90;99.90;;;;;;5021071;28;19925;-43
2023/08/12 02:47:26;;;;;;;;;;;19.90;99.90;;;;;;5027081;28;19932;-43
2023/08/12 02:49:54;;;;;;;;;;;19.90;99.90;;;;;;5029531;28;19984;-43
2023/08/12 02:52:20;;;;;;;;;;;19.80;99.90;;;;;;5030112;28;19937;-42
2023/08/12 02:54:46;;;;;;;;;;;19.90;99.90;;;;;;5030887;28;19925;-42
2023/08/12 02:57:13;;;;;;;;;;;19.90;99.90;;;;;;5021372;28;20294;-43
2023/08/12 02:59:39;;;;;;;;;;;19.90;99.90;;;;;;5011328;28;19934;-43
2023/08/12 03:02:06;;;;;;;;;;;19.90;99.90;;;;;;5027056;28;19932;-43
2023/08/12 03:04:33;;;;;;;;;;;19.80;99.90;;;;;;5029103;28;19929;-43
2023/08/12 03:07:06;;;;;;;;;;;19.80;99.90;;;;;;5031017;28;19926;-42
2023/08/12 03:09:33;;;;;;;;;;;19.80;99.90;;;;;;5031493;28;19983;-42
2023/08/12 03:12:01;;;;;;;;;;;19.80;99.90;;;;;;5030362;28;19971;-44
2023/08/12 03:14:29;;;;;;;;;;;19.80;99.90;;;;;;5031473;28;20318;-43
2023/08/12 03:16:55;;;;;;;;;;;19.80;99.90;;;;;;5031023;28;19932;-42
2023/08/12 03:19:22;;;;;;;;;;;19.80;99.90;;;;;;5029870;28;19983;-43
2023/08/12 03:21:49;;;;;;;;;;;19.80;99.90;;;;;;5025660;28;19933;-43
2023/08/12 03:24:17;;;;;;;;;;;19.80;99.90;;;;;;5016438;28;19990;-43
2023/08/12 03:26:43;;;;;;;;;;;19.80;99.90;;;;;;5030250;28;19932;-43
2023/08/12 03:29:10;;;;;;;;;;;19.80;99.90;;;;;;5020591;28;19929;-43
2023/08/12 03:31:37;;;;;;;;;;;19.80;99.90;;;;;;5031379;28;19948;-42
2023/08/12 03:34:03;;;;;;;;;;;19.80;99.90;;;;;;5030215;28;19936;-43
2023/08/12 03:36:30;;;;;;;;;;;19.80;99.90;;;;;;5022098;28;19971;-43
2023/08/12 03:38:57;;;;;;;;;;;19.80;99.90;;;;;;5017689;28;19929;-44
2023/08/12 03:41:25;;;;;;;;;;;19.90;99.90;;;;;;5029657;28;19929;-43
2023/08/12 03:43:51;;;;;;;;;;;19.80;99.90;;;;;;5014558;28;20296;-43
2023/08/12 03:46:18;;;;;;;;;;;19.80;99.90;;;;;;5014127;28;19929;-43
2023/08/12 03:48:45;;;;;;;;;;;19.80;99.90;;;;;;5020431;28;20365;-42
2023/08/12 03:51:12;;;;;;;;;;;19.80;99.90;;;;;;5033791;28;19972;-43
2023/08/12 03:53:38;;;;;;;;;;;19.80;99.90;;;;;;5016492;28;19925;-43
2023/08/12 03:56:05;;;;;;;;;;;19.90;99.90;;;;;;5029660;28;19979;-43
2023/08/12 03:58:33;;;;;;;;;;;19.80;99.90;;;;;;5034941;28;20340;-43
2023/08/12 04:01:00;;;;;;;;;;;19.90;99.90;;;;;;5030449;28;20374;-43
2023/08/12 04:03:26;;;;;;;;;;;19.90;99.90;;;;;;5029524;28;19925;-42
2023/08/12 04:05:54;;;;;;;;;;;19.80;99.90;;;;;;5030713;28;19979;-43
2023/08/12 04:11:26;;;;;;;;;;;19.90;99.90;;;;;;5034654;28;19925;-43
2023/08/12 04:13:54;;;;;;;;;;;19.90;99.90;;;;;;5026928;28;19925;-43
2023/08/12 04:16:21;;;;;;;;;;;19.80;99.90;;;;;;5023869;28;19972;-43
2023/08/12 04:18:48;;;;;;;;;;;19.90;99.90;;;;;;5032826;28;19932;-43
2023/08/12 04:21:15;;;;;;;;;;;19.90;99.90;;;;;;5034178;28;20333;-43
2023/08/12 04:23:41;;;;;;;;;;;19.80;99.90;;;;;;5026706;28;19933;-43
2023/08/12 04:26:08;;;;;;;;;;;19.90;99.90;;;;;;5016923;28;20361;-42
2023/08/12 04:28:35;;;;;;;;;;;19.90;99.90;;;;;;5030230;28;19976;-42
2023/08/12 04:31:06;;;;;;;;;;;19.90;99.90;;;;;;5034129;28;19929;-43
2023/08/12 04:33:33;;;;;;;;;;;19.90;99.90;;;;;;5031394;28;19925;-42
2023/08/12 04:36:00;;;;;;;;;;;19.90;99.90;;;;;;5023379;28;19925;-43
2023/08/12 04:38:26;;;;;;;;;;;19.90;99.90;;;;;;5034222;28;20340;-43
2023/08/12 04:40:53;;;;;;;;;;;19.90;99.90;;;;;;5032910;28;19925;-43
2023/08/12 04:43:20;;;;;;;;;;;19.90;99.90;;;;;;5015013;28;19933;-42
2023/08/12 04:45:47;;;;;;;;;;;19.90;99.90;;;;;;5020317;28;19925;-43
2023/08/12 04:48:15;;;;;;;;;;;19.90;99.90;;;;;;5014179;28;19975;-42
2023/08/12 04:50:42;;;;;;;;;;;19.90;99.90;;;;;;5019761;28;19925;-43
2023/08/12 04:53:09;;;;;;;;;;;19.90;99.90;;;;;;5031778;28;19925;-43
2023/08/12 04:55:35;;;;;;;;;;;19.90;99.90;;;;;;5031551;28;19932;-43
2023/08/12 04:58:02;;;;;;;;;;;19.90;99.90;;;;;;5031264;28;20377;-43
2023/08/12 05:00:29;;;;;;;;;;;19.90;99.90;;;;;;5021809;28;19931;-44
2023/08/12 05:02:56;;;;;;;;;;;19.90;99.90;;;;;;5030391;28;19926;-42
2023/08/12 05:05:24;;;;;;;;;;;19.90;99.90;;;;;;5029518;28;19929;-43
2023/08/12 05:07:51;;;;;;;;;;;19.90;99.90;;;;;;5028912;28;19932;-43
2023/08/12 05:10:17;;;;;;;;;;;19.90;99.90;;;;;;5029610;28;19932;-44
2023/08/12 05:12:44;;;;;;;;;;;19.90;99.90;;;;;;5030046;28;19929;-43
2023/08/12 05:15:11;;;;;;;;;;;19.90;99.90;;;;;;5032290;28;19925;-43
2023/08/12 05:17:38;;;;;;;;;;;19.90;99.90;;;;;;5021644;28;19971;-43
2023/08/12 05:20:05;;;;;;;;;;;19.90;99.90;;;;;;5022279;28;19929;-43
2023/08/12 05:22:33;;;;;;;;;;;19.90;99.90;;;;;;5029852;28;19925;-43
2023/08/12 05:25:00;;;;;;;;;;;19.90;99.90;;;;;;5032170;28;19929;-43
2023/08/12 05:27:26;;;;;;;;;;;20.00;99.90;;;;;;5032154;28;19925;-43
2023/08/12 05:29:53;;;;;;;;;;;20.00;99.90;;;;;;5017498;28;19971;-44
2023/08/12 05:32:20;;;;;;;;;;;20.00;99.90;;;;;;5023170;28;19983;-43
2023/08/12 05:34:46;;;;;;;;;;;20.10;99.90;;;;;;5032534;28;19925;-45
2023/08/12 05:37:13;;;;;;;;;;;20.10;99.90;;;;;;5031093;28;19932;-43
2023/08/12 05:39:41;;;;;;;;;;;20.10;99.90;;;;;;5018694;28;19926;-42
2023/08/12 05:42:08;;;;;;;;;;;20.20;99.90;;;;;;5032516;28;19925;-42
2023/08/12 05:44:35;;;;;;;;;;;20.20;99.90;;;;;;5031933;28;19944;-43
2023/08/12 05:47:01;;;;;;;;;;;20.30;99.90;;;;;;5031486;28;19932;-43
2023/08/12 05:49:28;;;;;;;;;;;20.30;99.90;;;;;;5014989;28;20305;-43
2023/08/12 05:51:55;;;;;;;;;;;20.40;99.90;;;;;;5030479;28;19933;-43
2023/08/12 05:54:21;;;;;;;;;;;20.50;99.90;;;;;;5030827;28;20420;-43
2023/08/12 05:56:49;;;;;;;;;;;20.50;99.90;;;;;;5027649;28;19932;-44
2023/08/12 05:59:16;;;;;;;;;;;20.60;99.90;;;;;;5027818;28;20357;-43
2023/08/12 06:01:43;;;;;;;;;;;20.60;99.90;;;;;;5022853;28;19925;-43
2023/08/12 06:04:09;;;;;;;;;;;20.70;99.90;;;;;;5029655;28;20339;-43
2023/08/12 06:06:36;;;;;;;;;;;20.80;99.90;;;;;;5028909;28;19932;-44
2023/08/12 06:09:03;;;;;;;;;;;20.80;99.90;;;;;;5019131;28;19925;-44
2023/08/12 06:11:30;;;;;;;;;;;20.80;99.90;;;;;;5017907;28;19984;-43
2023/08/12 06:13:58;;;;;;;;;;;20.80;99.90;;;;;;5018204;28;20380;-43
2023/08/12 06:16:24;;;;;;;;;;;20.80;99.90;;;;;;5022114;28;19991;-43
2023/08/12 06:18:51;;;;;;;;;;;20.80;99.90;;;;;;5027625;28;19926;-42
2023/08/12 06:21:18;;;;;;;;;;;20.80;99.90;;;;;;5015787;28;19932;-44
2023/08/12 06:23:44;;;;;;;;;;;20.80;99.90;;;;;;5019687;28;20494;-43
2023/08/12 06:26:11;;;;;;;;;;;20.90;99.90;;;;;;5024596;28;19976;-44
2023/08/12 06:28:38;;;;;;;;;;;20.90;99.90;;;;;;5017548;28;19929;-44
2023/08/12 06:31:06;;;;;;;;;;;20.90;99.90;;;;;;5025259;28;20342;-44
2023/08/12 06:33:32;;;;;;;;;;;20.90;99.90;;;;;;5023510;28;19925;-43
2023/08/12 06:35:59;;;;;;;;;;;20.90;99.90;;;;;;5020746;28;19971;-44
2023/08/12 06:38:26;;;;;;;;;;;21.00;99.90;;;;;;5030498;28;19925;-44
2023/08/12 06:40:53;;;;;;;;;;;21.00;99.90;;;;;;5028776;28;19948;-43
2023/08/12 06:43:19;;;;;;;;;;;21.00;99.90;;;;;;5030721;28;20394;-43
2023/08/12 06:45:46;;;;;;;;;;;21.00;99.90;;;;;;5029665;28;19933;-44
2023/08/12 06:48:14;;;;;;;;;;;21.10;99.90;;;;;;5029968;28;19948;-44
2023/08/12 06:50:40;;;;;;;;;;;21.10;99.90;;;;;;5028813;28;19925;-43
2023/08/12 06:53:07;;;;;;;;;;;21.10;99.90;;;;;;5027708;28;20512;-44
2023/08/12 06:55:33;;;;;;;;;;;21.10;99.90;;;;;;5026617;28;20012;-43
2023/08/12 06:58:00;;;;;;;;;;;21.10;99.90;;;;;;5028574;28;19932;-43
2023/08/12 07:00:27;;;;;;;;;;;21.10;99.90;;;;;;5028143;28;19925;-43
2023/08/12 07:02:54;;;;;;;;;;;21.10;99.90;;;;;;5030155;28;20369;-44
2023/08/12 07:05:22;;;;;;;;;;;21.10;99.90;;;;;;5026174;28;20370;-43
2023/08/12 07:07:49;;;;;;;;;;;21.10;99.90;;;;;;5017884;28;20297;-44
2023/08/12 07:10:15;;;;;;;;;;;21.10;99.90;;;;;;5022181;28;19991;-43
2023/08/12 07:12:42;;;;;;;;;;;21.00;99.90;;;;;;5023445;28;19925;-43
2023/08/12 07:15:10;;;;;;;;;;;21.00;99.90;;;;;;5026861;28;19925;-43
2023/08/12 07:17:37;;;;;;;;;;;21.00;99.90;;;;;;5022523;28;19952;-43
2023/08/12 07:20:04;;;;;;;;;;;21.00;99.90;;;;;;5025235;28;19925;-43
2023/08/12 07:22:32;;;;;;;;;;;21.00;99.90;;;;;;5030793;28;20011;-43
2023/08/12 07:24:59;;;;;;;;;;;21.00;99.90;;;;;;5031158;28;20308;-44
2023/08/12 07:27:26;;;;;;;;;;;21.00;99.90;;;;;;5029939;28;19939;-44
2023/08/12 07:29:53;;;;;;;;;;;21.00;99.90;;;;;;5020945;28;19926;-43
2023/08/12 07:32:20;;;;;;;;;;;21.00;99.90;;;;;;5029658;28;19925;-43
2023/08/12 07:34:46;;;;;;;;;;;21.10;99.90;;;;;;5025761;28;20115;-43
2023/08/12 07:37:13;;;;;;;;;;;21.00;99.90;;;;;;5019433;28;19925;-44
2023/08/12 07:39:41;;;;;;;;;;;21.00;99.90;;;;;;5015422;28;19980;-43
2023/08/12 07:42:08;;;;;;;;;;;21.00;99.90;;;;;;5028001;28;19995;-43
2023/08/12 07:44:34;;;;;;;;;;;21.00;99.90;;;;;;5030951;28;19991;-43
2023/08/12 07:47:01;;;;;;;;;;;21.00;99.90;;;;;;5030274;28;19994;-44
2023/08/12 07:49:28;;;;;;;;;;;21.10;99.90;;;;;;5028293;28;19925;-43
2023/08/12 07:51:55;;;;;;;;;;;21.10;99.90;;;;;;5025117;28;19948;-43
2023/08/12 07:54:21;;;;;;;;;;;21.10;99.90;;;;;;5025926;28;19932;-43
2023/08/12 07:56:49;;;;;;;;;;;21.10;99.90;;;;;;5014571;28;19979;-44
2023/08/12 07:59:16;;;;;;;;;;;21.10;99.90;;;;;;5028888;28;19929;-45
2023/08/12 08:01:43;;;;;;;;;;;21.10;99.90;;;;;;5021782;28;19929;-44
2023/08/12 08:04:10;;;;;;;;;;;21.10;99.90;;;;;;5026257;28;20389;-44
2023/08/12 08:06:36;;;;;;;;;;;21.10;99.90;;;;;;5028879;28;19929;-44
2023/08/12 08:09:03;;;;;;;;;;;21.10;99.90;;;;;;5018967;28;19925;-44
2023/08/12 08:11:30;;;;;;;;;;;21.10;99.90;;;;;;5014234;28;19926;-44
2023/08/12 08:13:59;;;;;;;;;;;21.10;99.90;;;;;;5011271;28;19925;-43
2023/08/12 08:16:25;;;;;;;;;;;21.10;99.90;;;;;;5021613;28;19925;-44
2023/08/12 08:18:52;;;;;;;;;;;21.10;99.90;;;;;;5031245;28;19929;-44
2023/08/12 08:21:19;;;;;;;;;;;21.10;99.90;;;;;;5031006;28;19979;-44
2023/08/12 08:23:46;;;;;;;;;;;21.10;99.90;;;;;;5029541;28;19932;-43
2023/08/12 08:26:12;;;;;;;;;;;21.10;99.90;;;;;;5031108;28;19925;-43
2023/08/12 08:28:39;;;;;;;;;;;21.10;99.90;;;;;;5024522;28;19925;-44
2023/08/12 08:31:07;;;;;;;;;;;21.00;99.90;;;;;;5014636;28;19976;-43
2023/08/12 08:33:34;;;;;;;;;;;21.00;99.90;;;;;;5013687;28;19925;-42
2023/08/12 08:36:01;;;;;;;;;;;21.00;99.90;;;;;;5013135;28;19926;-43
2023/08/12 08:38:27;;;;;;;;;;;21.00;99.90;;;;;;5014413;28;19925;-43
2023/08/12 08:40:54;;;;;;;;;;;21.00;99.90;;;;;;5014264;28;19972;-43
2023/08/12 08:43:21;;;;;;;;;;;21.00;99.90;;;;;;5014359;28;19926;-43
2023/08/12 08:45:47;;;;;;;;;;;20.90;99.90;;;;;;5032449;28;19929;-44
2023/08/12 08:48:15;;;;;;;;;;;20.90;99.90;;;;;;5033216;28;19925;-43
2023/08/12 08:50:42;;;;;;;;;;;20.90;99.90;;;;;;5034263;28;19932;-43
2023/08/12 08:53:09;;;;;;;;;;;20.90;99.90;;;;;;5033948;28;20308;-43
2023/08/12 08:55:36;;;;;;;;;;;20.90;99.90;;;;;;5033805;28;19936;-44
2023/08/12 08:58:03;;;;;;;;;;;20.90;99.90;;;;;;5031513;28;20332;-43
2023/08/12 09:00:29;;;;;;;;;;;20.90;99.90;;;;;;5033159;28;19932;-42
2023/08/12 09:02:56;;;;;;;;;;;20.80;99.90;;;;;;5027641;28;20365;-42
2023/08/12 09:05:24;;;;;;;;;;;20.80;99.90;;;;;;5023428;28;19933;-44
2023/08/12 09:07:51;;;;;;;;;;;20.80;99.90;;;;;;5030942;28;19933;-43
2023/08/12 09:10:18;;;;;;;;;;;20.70;99.90;;;;;;5020676;28;19929;-43
2023/08/12 09:12:46;;;;;;;;;;;20.70;99.90;;;;;;5026055;28;19925;-42
2023/08/12 09:15:13;;;;;;;;;;;20.60;99.90;;;;;;5021050;28;19925;-44
2023/08/12 09:17:40;;;;;;;;;;;20.60;99.90;;;;;;5025854;28;19940;-42
2023/08/12 09:20:11;;;;;;;;;;;20.50;99.90;;;;;;5028394;28;19933;-44
2023/08/12 09:22:39;;;;;;;;;;;20.50;99.90;;;;;;5024733;28;20180;-44
2023/08/12 09:25:07;;;;;;;;;;;20.40;99.90;;;;;;5020756;28;19937;-43
2023/08/12 09:27:33;;;;;;;;;;;20.40;99.90;;;;;;5026041;28;20016;-43
2023/08/12 09:30:03;;;;;;;;;;;20.40;99.90;;;;;;5028283;28;20385;-43
2023/08/12 09:32:30;;;;;;;;;;;20.40;99.90;;;;;;5023492;28;20354;-43
2023/08/12 09:34:56;;;;;;;;;;;20.30;99.90;;;;;;5017959;28;20142;-43
2023/08/12 09:37:23;;;;;;;;;;;20.30;99.90;;;;;;5028518;28;19980;-44
2023/08/12 09:39:52;;;;;;;;;;;20.30;99.90;;;;;;5018738;28;19926;-44
2023/08/12 09:42:18;;;;;;;;;;;20.30;99.90;;;;;;5026405;28;20384;-43
2023/08/12 09:44:45;;;;;;;;;;;20.30;99.90;;;;;;5021629;28;19925;-43
2023/08/12 09:47:12;;;;;;;;;;;20.30;99.90;;;;;;5027689;28;20324;-44
2023/08/12 09:49:39;;;;;;;;;;;20.30;99.90;;;;;;5029188;28;20291;-43
2023/08/12 09:52:06;;;;;;;;;;;20.30;99.90;;;;;;5012716;28;19992;-44
2023/08/12 09:54:33;;;;;;;;;;;20.30;99.90;;;;;;5020601;28;19929;-43
2023/08/12 09:57:03;;;;;;;;;;;20.40;99.90;;;;;;5031745;28;20122;-43
2023/08/12 09:59:30;;;;;;;;;;;20.40;99.90;;;;;;5030199;28;19929;-43
2023/08/12 10:01:57;;;;;;;;;;;20.50;99.90;;;;;;5024278;28;19929;-43
2023/08/12 10:04:24;;;;;;;;;;;20.50;99.90;;;;;;5019181;28;20301;-44
2023/08/12 10:06:51;;;;;;;;;;;20.50;99.90;;;;;;5016494;28;19925;-43
2023/08/12 10:09:18;;;;;;;;;;;20.50;99.90;;;;;;5027094;28;19933;-43
2023/08/12 10:11:46;;;;;;;;;;;20.50;99.90;;;;;;5025192;28;19925;-43
2023/08/12 10:14:14;;;;;;;;;;;20.50;99.90;;;;;;5024623;28;19925;-44
2023/08/12 10:16:42;;;;;;;;;;;20.60;99.90;;;;;;5021963;28;20032;-42
2023/08/12 10:19:08;;;;;;;;;;;20.60;99.90;;;;;;5020422;28;19929;-42
2023/08/12 10:21:35;;;;;;;;;;;20.60;99.90;;;;;;5019744;28;20373;-42
2023/08/12 10:24:03;;;;;;;;;;;20.60;99.90;;;;;;5026872;28;19925;-41
2023/08/12 10:26:29;;;;;;;;;;;20.70;99.90;;;;;;5021302;28;19925;-42
2023/08/12 10:28:56;;;;;;;;;;;20.70;99.90;;;;;;5017026;28;19930;-42
2023/08/12 10:31:25;;;;;;;;;;;20.70;99.90;;;;;;5029663;28;19925;-42
2023/08/12 10:33:51;;;;;;;;;;;20.60;99.90;;;;;;5025013;28;19971;-41
2023/08/12 10:36:19;;;;;;;;;;;20.60;99.90;;;;;;5028522;28;20389;-42
2023/08/12 10:38:45;;;;;;;;;;;20.70;99.90;;;;;;5017162;28;19932;-42
2023/08/12 10:41:18;;;;;;;;;;;20.70;99.90;;;;;;5024028;28;19925;-42
2023/08/12 10:43:55;;;;;;;;;;;20.70;99.90;;;;;;5027518;28;19986;-42
2023/08/12 10:46:23;;;;;;;;;;;20.80;99.90;;;;;;5024035;28;19955;-41
2023/08/12 10:48:57;;;;;;;;;;;20.80;99.90;;;;;;5027591;28;19933;-42
2023/08/12 10:51:38;;;;;;;;;;;20.80;99.90;;;;;;5026354;28;19929;-42
2023/08/12 10:54:10;;;;;;;;;;;20.80;99.90;;;;;;5030394;28;19948;-42
2023/08/12 10:56:52;;;;;;;;;;;20.80;99.90;;;;;;5027672;28;19980;-42
2023/08/12 10:59:34;;;;;;;;;;;20.80;99.90;;;;;;5017942;28;19925;-42
2023/08/12 11:02:08;;;;;;;;;;;20.80;99.90;;;;;;5022217;28;19925;-42
2023/08/12 11:04:37;;;;;;;;;;;20.80;99.90;;;;;;5025574;28;19925;-42
2023/08/12 11:07:14;;;;;;;;;;;20.80;99.90;;;;;;5024490;28;19925;-42
2023/08/12 11:09:41;;;;;;;;;;;20.80;99.90;;;;;;5018621;28;20374;-42
2023/08/12 11:12:09;;;;;;;;;;;20.90;99.90;;;;;;5020544;28;20321;-42
2023/08/12 11:14:47;;;;;;;;;;;20.90;99.90;;;;;;5025485;28;19936;-42
2023/08/12 11:17:15;;;;;;;;;;;20.90;99.90;;;;;;5022478;28;19980;-42
2023/08/12 11:19:42;;;;;;;;;;;21.00;99.90;;;;;;5019649;28;19926;-42
2023/08/12 11:22:09;;;;;;;;;;;21.10;99.90;;;;;;5022615;28;19925;-42
2023/08/12 11:24:36;;;;;;;;;;;21.10;99.90;;;;;;5026323;28;20448;-42
2023/08/12 11:27:03;;;;;;;;;;;21.20;99.90;;;;;;5027181;28;19929;-41
2023/08/12 11:29:30;;;;;;;;;;;21.30;99.90;;;;;;5026780;28;19925;-43
2023/08/12 11:31:57;;;;;;;;;;;21.40;99.90;;;;;;5030998;28;19989;-43
2023/08/12 11:34:25;;;;;;;;;;;21.40;99.90;;;;;;5030655;28;20317;-43
2023/08/12 11:36:51;;;;;;;;;;;21.40;99.90;;;;;;5031213;28;19929;-42
2023/08/12 11:39:18;;;;;;;;;;;21.50;99.90;;;;;;5031142;28;19925;-43
2023/08/12 11:41:45;;;;;;;;;;;21.50;99.90;;;;;;5031258;28;19976;-43
2023/08/12 11:44:12;;;;;;;;;;;21.60;99.90;;;;;;5029363;28;19938;-43
2023/08/12 11:46:39;;;;;;;;;;;21.60;99.90;;;;;;5030406;28;19925;-43
2023/08/12 11:49:06;;;;;;;;;;;21.60;99.90;;;;;;5029883;28;19925;-43
2023/08/12 11:51:34;;;;;;;;;;;21.60;99.90;;;;;;5012044;28;19929;-43
2023/08/12 11:54:00;;;;;;;;;;;21.60;99.90;;;;;;5025038;28;19925;-43
2023/08/12 11:56:27;;;;;;;;;;;21.60;99.90;;;;;;5028092;28;20301;-43
2023/08/12 11:58:55;;;;;;;;;;;21.70;99.90;;;;;;5029740;28;19925;-43
2023/08/12 12:01:22;;;;;;;;;;;21.60;99.90;;;;;;5024137;28;19948;-43
2023/08/12 12:03:51;;;;;;;;;;;21.50;99.90;;;;;;5027442;28;20027;-43
2023/08/12 12:06:18;;;;;;;;;;;21.40;99.90;;;;;;5019777;28;19976;-43
2023/08/12 12:08:46;;;;;;;;;;;21.30;99.90;;;;;;5028792;28;20292;-43
2023/08/12 12:11:14;;;;;;;;;;;21.30;99.90;;;;;;5029035;28;19932;-43
2023/08/12 12:13:41;;;;;;;;;;;21.40;99.90;;;;;;5032552;28;19929;-43
2023/08/12 12:16:10;;;;;;;;;;;21.50;99.90;;;;;;5028769;28;19969;-43
2023/08/12 12:18:37;;;;;;;;;;;21.50;99.90;;;;;;5032767;28;20348;-43
2023/08/12 12:21:04;;;;;;;;;;;21.60;99.90;;;;;;5032667;28;19925;-43
2023/08/12 12:23:31;;;;;;;;;;;21.70;99.90;;;;;;5031674;28;20336;-43
2023/08/12 12:25:59;;;;;;;;;;;21.80;99.90;;;;;;5027457;28;19929;-42
2023/08/12 12:28:26;;;;;;;;;;;21.90;99.90;;;;;;5029883;28;19925;-44
2023/08/12 12:30:52;;;;;;;;;;;22.10;99.90;;;;;;5024972;28;19933;-43
2023/08/12 12:33:19;;;;;;;;;;;22.30;99.90;;;;;;5022652;28;20347;-44
2023/08/12 12:35:46;;;;;;;;;;;22.40;99.90;;;;;;5026295;28;20193;-43
2023/08/12 12:38:12;;;;;;;;;;;22.40;99.90;;;;;;5028916;28;19925;-43
2023/08/12 12:40:39;;;;;;;;;;;22.40;99.90;;;;;;5033697;28;20388;-44
2023/08/12 12:43:07;;;;;;;;;;;22.40;99.90;;;;;;5032222;28;20011;-43
2023/08/12 12:45:34;;;;;;;;;;;22.50;99.90;;;;;;5033154;28;19932;-43
2023/08/12 12:48:01;;;;;;;;;;;22.50;99.90;;;;;;5034113;28;19999;-43
2023/08/12 12:50:28;;;;;;;;;;;22.50;99.90;;;;;;5033202;28;19933;-43
2023/08/12 12:52:54;;;;;;;;;;;22.60;99.90;;;;;;5033829;28;20397;-43
2023/08/12 12:55:21;;;;;;;;;;;22.70;99.90;;;;;;5033725;28;19929;-43
2023/08/12 12:57:48;;;;;;;;;;;22.80;99.90;;;;;;5032272;28;19929;-44
2023/08/12 13:00:16;;;;;;;;;;;22.90;99.90;;;;;;5017943;28;19926;-43
2023/08/12 13:02:43;;;;;;;;;;;23.00;99.90;;;;;;5027067;28;19987;-43
2023/08/12 13:05:09;;;;;;;;;;;23.10;99.90;;;;;;5027776;28;19979;-43
2023/08/12 13:07:36;;;;;;;;;;;23.30;99.90;;;;;;5030990;28;20008;-43
2023/08/12 13:10:03;;;;;;;;;;;23.40;99.90;;;;;;5033556;28;19972;-43
2023/08/12 13:12:30;;;;;;;;;;;23.50;99.90;;;;;;5031388;28;19925;-43
2023/08/12 13:14:56;;;;;;;;;;;23.60;99.90;;;;;;5033606;28;19925;-42
2023/08/12 13:17:25;;;;;;;;;;;23.70;99.90;;;;;;5016677;28;19925;-43
2023/08/12 13:19:51;;;;;;;;;;;23.90;99.90;;;;;;5012217;28;19981;-42
2023/08/12 13:22:18;;;;;;;;;;;24.00;99.90;;;;;;5024518;28;19929;-43
2023/08/12 13:24:45;;;;;;;;;;;24.10;99.90;;;;;;5030508;28;19925;-43
2023/08/12 13:27:13;;;;;;;;;;;24.20;99.90;;;;;;5024272;28;19972;-43
2023/08/12 13:29:39;;;;;;;;;;;24.30;99.90;;;;;;5019451;28;20350;-42
2023/08/12 13:32:06;;;;;;;;;;;24.30;99.90;;;;;;5027027;28;19925;-43
2023/08/12 13:34:34;;;;;;;;;;;24.30;99.90;;;;;;5029536;28;20443;-43
2023/08/12 13:37:01;;;;;;;;;;;24.30;99.90;;;;;;5033047;28;20265;-43
2023/08/12 13:39:27;;;;;;;;;;;24.40;99.90;;;;;;5032862;28;19925;-43
2023/08/12 13:41:54;;;;;;;;;;;24.60;99.90;;;;;;5030751;28;19947;-44
2023/08/12 13:44:21;;;;;;;;;;;24.70;99.90;;;;;;5032540;28;19929;-43
2023/08/12 13:46:48;;;;;;;;;;;24.80;99.90;;;;;;5031979;28;19933;-43
2023/08/12 13:49:14;;;;;;;;;;;24.90;99.90;;;;;;5030463;28;19979;-43
2023/08/12 13:51:42;;;;;;;;;;;25.00;99.90;;;;;;5031844;28;19925;-43
2023/08/12 13:54:09;;;;;;;;;;;25.10;99.90;;;;;;5021336;28;19933;-43
2023/08/12 13:56:36;;;;;;;;;;;25.30;99.90;;;;;;5032756;28;19933;-43
2023/08/12 13:59:02;;;;;;;;;;;25.40;99.90;;;;;;5032593;28;20340;-43
2023/08/12 14:01:29;;;;;;;;;;;25.40;99.90;;;;;;5032535;28;20012;-44
2023/08/12 14:03:56;;;;;;;;;;;25.50;99.90;;;;;;5031741;28;19929;-43
2023/08/12 14:06:22;;;;;;;;;;;25.60;99.90;;;;;;5024882;28;19941;-44
2023/08/12 14:08:50;;;;;;;;;;;25.70;99.90;;;;;;5017593;28;19925;-43
2023/08/12 14:11:17;;;;;;;;;;;25.80;99.90;;;;;;5022847;28;20281;-43
2023/08/12 14:13:44;;;;;;;;;;;25.80;99.90;;;;;;5025190;28;19936;-43
2023/08/12 14:16:10;;;;;;;;;;;25.90;99.90;;;;;;5026459;28;19999;-43
2023/08/12 14:18:37;;;;;;;;;;;25.90;99.90;;;;;;5026332;28;19971;-43